Time;durP1;ratioP1;P1;durP2;ratioP2;P2;SDS_P1;SDS_P2;PMS_P1;PMS_P2;Temp;Humidity;BMP_temperature;BMP_pressure;BME280_temperature;BME280_humidity;BME280_pressure;Samples;Min_cycle;Max_cycle;Signal;HPM_P1;HPM_P2
2022/02/16 00:01:48;;;;;;;;;;;;;;;14.24;70.02;100293.34;5118973;27;19916;-79
2022/02/16 00:04:14;;;;;;;;;;;;;;;14.32;71.33;100295.53;5118727;27;20253;-80
2022/02/16 00:06:39;;;;;;;;;;;;;;;13.75;73.18;100291.38;5118449;27;19950;-80
2022/02/16 00:09:05;;;;;;;;;;;;;;;14.51;69.86;100292.34;5119099;27;20372;-81
2022/02/16 00:11:30;;;;;;;;;;;;;;;14.65;70.38;100280.47;5119823;27;19961;-80
2022/02/16 00:13:55;;;;;;;;;;;;;;;14.13;71.14;100285.97;5119743;27;19926;-80
2022/02/16 00:16:21;;;;;;;;;;;;;;;14.81;69.64;100285.63;5119118;27;19983;-80
2022/02/16 00:18:47;;;;;;;;;;;;;;;14.12;71.33;100270.63;5118636;27;19915;-80
2022/02/16 00:21:12;;;;;;;;;;;;;;;13.61;71.98;100267.91;5119025;27;19915;-80
2022/02/16 00:23:37;;;;;;;;;;;;;;;14.68;70.39;100259.31;5137636;27;20409;-80
2022/02/16 00:26:02;;;;;;;;;;;;;;;14.11;70.78;100260.72;5137164;27;19965;-80
2022/02/16 00:28:28;;;;;;;;;;;;;;;13.89;73.00;100260.50;5118949;27;19944;-80
2022/02/16 00:30:53;;;;;;;;;;;;;;;14.14;71.63;100256.91;5137772;27;19923;-80
2022/02/16 00:33:18;;;;;;;;;;;;;;;13.74;72.62;100257.91;5119162;27;19915;-80
2022/02/16 00:35:44;;;;;;;;;;;;;;;14.59;69.32;100243.63;5119142;27;19915;-80
2022/02/16 00:38:09;;;;;;;;;;;;;;;14.39;70.27;100249.66;5137191;27;19911;-81
2022/02/16 00:40:34;;;;;;;;;;;;;;;14.63;69.99;100244.31;5119183;27;19926;-81
2022/02/16 00:42:59;;;;;;;;;;;;;;;13.77;72.66;100241.38;5118372;27;19911;-80
2022/02/16 00:45:24;;;;;;;;;;;;;;;14.26;71.22;100227.94;5118388;27;20399;-80
2022/02/16 00:47:50;;;;;;;;;;;;;;;13.95;71.47;100222.88;5118077;27;19954;-79
2022/02/16 00:50:16;;;;;;;;;;;;;;;13.86;71.59;100211.78;5136344;27;19994;-79
2022/02/16 00:52:41;;;;;;;;;;;;;;;14.52;69.74;100210.56;5117703;27;19925;-80
2022/02/16 00:55:07;;;;;;;;;;;;;;;14.51;69.92;100205.25;5136979;27;20010;-80
2022/02/16 00:57:32;;;;;;;;;;;;;;;14.64;70.08;100197.06;5137059;28;19950;-79
2022/02/16 00:59:58;;;;;;;;;;;;;;;14.73;70.53;100185.47;5136923;28;19986;-81
2022/02/16 01:02:24;;;;;;;;;;;;;;;14.54;69.01;100185.97;5118495;28;19929;-80
2022/02/16 01:04:49;;;;;;;;;;;;;;;14.19;70.40;100186.69;5118817;28;19916;-80
2022/02/16 01:07:14;;;;;;;;;;;;;;;14.44;69.81;100182.19;5118273;28;19919;-80
2022/02/16 01:09:39;;;;;;;;;;;;;;;14.33;70.79;100180.28;5120367;27;19922;-81
2022/02/16 01:12:05;;;;;;;;;;;;;;;13.28;71.46;100185.00;5122827;27;19919;-80
2022/02/16 01:14:30;;;;;;;;;;;;;;;13.91;70.83;100177.84;5141871;27;19944;-80
2022/02/16 01:16:55;;;;;;;;;;;;;;;14.26;71.86;100168.94;5123218;27;19968;-80
2022/02/16 01:19:21;;;;;;;;;;;;;;;14.92;68.83;100160.44;5123400;27;19919;-80
2022/02/16 01:21:46;;;;;;;;;;;;;;;14.44;70.18;100153.09;5123190;27;20002;-80
2022/02/16 01:24:11;;;;;;;;;;;;;;;14.41;69.71;100153.34;5141798;27;19919;-79
2022/02/16 01:26:36;;;;;;;;;;;;;;;14.19;70.58;100154.06;5141727;27;19911;-81
2022/02/16 01:29:02;;;;;;;;;;;;;;;14.44;69.23;100136.78;5123366;27;19915;-79
2022/02/16 01:31:27;;;;;;;;;;;;;;;14.48;70.17;100129.28;5141792;27;20361;-80
2022/02/16 01:33:52;;;;;;;;;;;;;;;14.83;68.81;100115.69;5141240;27;19920;-80
2022/02/16 01:36:17;;;;;;;;;;;;;;;14.41;70.27;100117.09;5142775;27;19950;-79
2022/02/16 01:38:43;;;;;;;;;;;;;;;14.45;70.69;100115.91;5124403;27;19915;-80
2022/02/16 01:41:11;;;;;;;;;;;;;;;14.34;71.76;100109.41;5124081;27;19917;-80
2022/02/16 01:43:36;;;;;;;;;;;;;;;14.31;71.92;100098.75;5124553;27;19923;-80
2022/02/16 01:46:02;;;;;;;;;;;;;;;14.60;70.96;100097.50;5143092;27;19911;-80
2022/02/16 01:48:27;;;;;;;;;;;;;;;14.26;72.99;100086.47;5142513;27;19922;-80
2022/02/16 01:50:52;;;;;;;;;;;;;;;14.51;71.50;100080.03;5124275;27;19922;-80
2022/02/16 01:53:17;;;;;;;;;;;;;;;14.45;71.78;100073.22;5124016;27;20378;-79
2022/02/16 01:55:44;;;;;;;;;;;;;;;14.38;71.96;100081.97;5124077;27;19961;-79
2022/02/16 01:58:10;;;;;;;;;;;;;;;14.80;71.26;100076.97;5124290;27;20010;-79
2022/02/16 02:00:35;;;;;;;;;;;;;;;14.93;70.10;100064.13;5124793;27;19977;-79
2022/02/16 02:03:00;;;;;;;;;;;;;;;15.01;70.02;100068.97;5143021;27;20010;-78
2022/02/16 02:05:26;;;;;;;;;;;;;;;14.50;71.52;100071.00;5142843;27;19912;-80
2022/02/16 02:07:51;;;;;;;;;;;;;;;13.80;72.98;100067.16;5142087;27;20006;-79
2022/02/16 02:10:16;;;;;;;;;;;;;;;13.78;73.55;100052.81;5124056;27;20280;-79
2022/02/16 02:12:43;;;;;;;;;;;;;;;14.21;72.82;100047.88;5123660;27;19998;-79
2022/02/16 02:15:09;;;;;;;;;;;;;;;14.61;71.10;100055.72;5123994;27;19915;-78
2022/02/16 02:17:34;;;;;;;;;;;;;;;14.20;71.50;100040.69;5123746;27;19922;-78
2022/02/16 02:20:00;;;;;;;;;;;;;;;14.05;71.88;100037.28;5123516;27;19943;-79
2022/02/16 02:22:25;;;;;;;;;;;;;;;14.62;70.32;100030.25;5122693;27;19966;-79
2022/02/16 02:24:50;;;;;;;;;;;;;;;14.86;70.20;100039.22;5123500;27;19919;-79
2022/02/16 02:27:15;;;;;;;;;;;;;;;15.36;68.78;100035.31;5123364;27;19919;-79
2022/02/16 02:29:42;;;;;;;;;;;;;;;15.11;69.35;100031.81;5123145;27;19946;-79
2022/02/16 02:32:07;;;;;;;;;;;;;;;15.04;70.02;100033.31;5123607;27;19916;-80
2022/02/16 02:34:32;;;;;;;;;;;;;;;14.66;71.20;100023.56;5123059;27;20285;-79
2022/02/16 02:36:58;;;;;;;;;;;;;;;14.80;71.16;100028.81;5123254;27;19919;-80
2022/02/16 02:39:23;;;;;;;;;;;;;;;14.90;71.01;100023.53;5122835;27;20395;-79
2022/02/16 02:41:48;;;;;;;;;;;;;;;14.49;71.28;100020.28;5122454;27;19915;-79
2022/02/16 02:44:13;;;;;;;;;;;;;;;13.67;73.36;100006.53;5140826;27;19915;-79
2022/02/16 02:46:39;;;;;;;;;;;;;;;14.20;72.38;99997.16;5122279;27;19915;-78
2022/02/16 02:49:04;;;;;;;;;;;;;;;14.48;71.43;99988.59;5140736;27;19923;-80
2022/02/16 02:51:29;;;;;;;;;;;;;;;14.29;72.27;99980.13;5122375;27;20253;-79
2022/02/16 02:53:54;;;;;;;;;;;;;;;14.12;72.08;99976.84;5140706;27;19924;-79
2022/02/16 02:56:20;;;;;;;;;;;;;;;13.91;72.61;99960.31;5140195;27;19926;-79
2022/02/16 02:58:45;;;;;;;;;;;;;;;14.01;73.83;99963.22;5120982;27;20072;-78
2022/02/16 03:01:10;;;;;;;;;;;;;;;13.80;74.07;99955.69;5139826;27;20286;-78
2022/02/16 03:03:36;;;;;;;;;;;;;;;14.10;72.95;99961.63;5120733;27;19916;-79
2022/02/16 03:06:02;;;;;;;;;;;;;;;14.34;73.22;99953.41;5139403;27;19922;-80
2022/02/16 03:08:28;;;;;;;;;;;;;;;14.42;72.57;99951.00;5121074;27;19954;-79
2022/02/16 03:10:53;;;;;;;;;;;;;;;13.57;74.69;99941.13;5121070;27;20262;-79
2022/02/16 03:13:21;;;;;;;;;;;;;;;13.72;73.59;99949.94;5121187;27;19922;-78
2022/02/16 03:15:51;;;;;;;;;;;;;;;13.59;74.03;99941.88;5121101;27;19922;-78
2022/02/16 03:18:17;;;;;;;;;;;;;;;13.55;73.91;99950.38;5139893;27;20440;-79
2022/02/16 03:20:42;;;;;;;;;;;;;;;14.12;72.28;99929.75;5121205;27;19946;-78
2022/02/16 03:23:08;;;;;;;;;;;;;;;14.22;71.80;99935.34;5121238;27;19920;-78
2022/02/16 03:25:34;;;;;;;;;;;;;;;13.74;72.30;99945.28;5121484;27;19998;-79
2022/02/16 03:27:59;;;;;;;;;;;;;;;13.83;73.33;99909.25;5120877;27;19959;-79
2022/02/16 03:30:24;;;;;;;;;;;;;;;14.09;72.45;99902.78;5139390;27;20376;-79
2022/02/16 03:32:49;;;;;;;;;;;;;;;14.06;72.12;99897.59;5137804;27;20448;-79
2022/02/16 03:35:15;;;;;;;;;;;;;;;14.12;72.06;99894.41;5120540;27;20002;-76
2022/02/16 03:37:40;;;;;;;;;;;;;;;14.36;71.79;99876.13;5120891;27;19954;-80
2022/02/16 03:40:05;;;;;;;;;;;;;;;13.65;72.78;99870.75;5120459;27;19915;-79
2022/02/16 03:42:31;;;;;;;;;;;;;;;13.45;73.77;99865.94;5139110;27;19915;-79
2022/02/16 03:44:56;;;;;;;;;;;;;;;13.39;73.64;99867.28;5120453;27;20314;-78
2022/02/16 03:47:21;;;;;;;;;;;;;;;13.54;74.05;99856.22;5120349;27;20316;-78
2022/02/16 03:49:46;;;;;;;;;;;;;;;13.18;74.09;99857.97;5139400;27;19916;-79
2022/02/16 03:52:11;;;;;;;;;;;;;;;13.64;72.62;99862.69;5119684;27;19941;-78
2022/02/16 03:54:37;;;;;;;;;;;;;;;13.63;72.78;99856.41;5118533;27;20369;-78
2022/02/16 03:57:02;;;;;;;;;;;;;;;13.95;71.94;99841.28;5118459;27;19938;-78
2022/02/16 03:59:27;;;;;;;;;;;;;;;14.03;71.15;99844.31;5137164;27;20354;-79
2022/02/16 04:01:52;;;;;;;;;;;;;;;14.10;70.73;99831.97;5118801;27;19916;-79
2022/02/16 04:04:18;;;;;;;;;;;;;;;14.05;71.08;99826.00;5118766;27;19915;-79
2022/02/16 04:06:43;;;;;;;;;;;;;;;13.74;71.64;99832.94;5118744;27;19997;-80
2022/02/16 04:09:08;;;;;;;;;;;;;;;13.76;72.81;99810.13;5118725;27;19968;-79
2022/02/16 04:11:34;;;;;;;;;;;;;;;13.26;74.15;99814.84;5137284;27;19915;-80
2022/02/16 04:13:59;;;;;;;;;;;;;;;13.64;74.26;99806.50;5137048;27;20284;-80
2022/02/16 04:16:24;;;;;;;;;;;;;;;13.63;74.74;99788.47;5137173;27;20352;-79
2022/02/16 04:18:49;;;;;;;;;;;;;;;14.41;73.73;99785.97;5118440;27;19922;-79
2022/02/16 04:21:15;;;;;;;;;;;;;;;14.27;71.46;99776.22;5118774;27;19946;-80
2022/02/16 04:23:43;;;;;;;;;;;;;;;14.61;70.95;99769.91;5118894;27;20272;-80
2022/02/16 04:27:07;;;;;;;;;;;;;;;-147.53;100.00;59759.91;5118704;27;19926;-79
2022/02/16 04:30:31;;;;;;;;;;;;;;;-147.53;100.00;59759.91;5118463;27;20337;-79
2022/02/16 04:33:55;;;;;;;;;;;;;;;-147.53;100.00;59759.91;5137075;27;20018;-79
2022/02/16 04:37:19;;;;;;;;;;;;;;;-147.53;100.00;59759.91;5118370;27;19946;-79
2022/02/16 04:40:43;;;;;;;;;;;;;;;-147.53;100.00;59759.91;5118224;27;20388;-79
2022/02/16 04:44:06;;;;;;;;;;;;;;;-147.53;100.00;59759.91;5137065;27;20010;-79
2022/02/16 04:47:30;;;;;;;;;;;;;;;-147.53;100.00;59759.91;5137019;27;19923;-79
2022/02/16 04:49:55;;;;;;;;;;;;;;;14.93;72.12;99690.13;5136800;27;20373;-80
2022/02/16 04:52:20;;;;;;;;;;;;;;;13.98;74.38;99705.97;5117823;28;19926;-79
2022/02/16 04:55:33;;;;;;;;;;;;;;;-147.53;100.00;59759.91;5135878;27;20215;-79
2022/02/16 04:58:54;;;;;;;;;;;;;;;-147.53;100.00;59759.91;5136475;27;19931;-79
2022/02/16 05:01:24;;;;;;;;;;;;;;;13.98;74.38;99705.97;5118001;28;19919;-79
2022/02/16 05:03:49;;;;;;;;;;;;;;;14.43;73.06;99680.63;5117600;28;19967;-79
2022/02/16 05:06:15;;;;;;;;;;;;;;;14.13;74.77;99663.09;5117634;28;20017;-79
2022/02/16 05:08:40;;;;;;;;;;;;;;;13.41;78.56;99658.84;5117409;28;19916;-78
2022/02/16 05:11:05;;;;;;;;;;;;;;;13.05;78.90;99657.13;5135971;28;20019;-79
2022/02/16 05:13:30;;;;;;;;;;;;;;;14.12;74.83;99641.47;5135942;28;20015;-78
2022/02/16 05:15:55;;;;;;;;;;;;;;;13.50;77.57;99645.50;5117262;28;19916;-79
2022/02/16 05:18:21;;;;;;;;;;;;;;;13.26;78.37;99658.16;5117392;28;19958;-78
2022/02/16 05:20:46;;;;;;;;;;;;;;;14.71;75.77;99638.34;5117170;28;20320;-79
2022/02/16 05:23:11;;;;;;;;;;;;;;;14.59;74.08;99646.66;5135622;28;20385;-79
2022/02/16 05:25:36;;;;;;;;;;;;;;;14.15;75.04;99644.78;5117289;28;19929;-78
2022/02/16 05:28:02;;;;;;;;;;;;;;;14.56;73.00;99627.88;5135537;28;19951;-78
2022/02/16 05:30:27;;;;;;;;;;;;;;;14.40;73.84;99612.81;5116896;28;19920;-80
2022/02/16 05:32:52;;;;;;;;;;;;;;;16.29;68.05;99598.22;5116349;28;19959;-79
2022/02/16 05:35:17;;;;;;;;;;;;;;;15.30;70.88;99599.81;5135439;28;19916;-79
2022/02/16 05:37:43;;;;;;;;;;;;;;;14.80;77.20;99590.44;5135550;28;19965;-77
2022/02/16 05:40:08;;;;;;;;;;;;;;;14.79;72.84;99575.09;5116483;28;19923;-78
2022/02/16 05:42:37;;;;;;;;;;;;;;;-147.53;100.00;59759.91;5115908;28;19916;-78
2022/02/16 05:45:03;;;;;;;;;;;;;;;15.73;69.44;99566.00;5134351;28;19912;-78
2022/02/16 05:47:28;;;;;;;;;;;;;;;16.30;68.14;99553.56;5134279;28;19968;-79
2022/02/16 05:49:53;;;;;;;;;;;;;;;-147.53;100.00;59759.91;5115667;28;19911;-79
2022/02/16 05:52:18;;;;;;;;;;;;;;;16.27;67.57;99545.66;5133902;28;19922;-79
2022/02/16 05:54:43;;;;;;;;;;;;;;;-147.52;100.00;59759.91;5116701;28;19931;-79
2022/02/16 05:57:09;;;;;;;;;;;;;;;-147.53;100.00;59759.91;5137459;27;20338;-79
2022/02/16 05:59:35;;;;;;;;;;;;;;;-147.53;100.00;59759.91;5120786;27;19921;-80
2022/02/16 06:02:03;;;;;;;;;;;;;;;-147.53;100.00;59759.91;5120512;27;19919;-79
2022/02/16 06:05:27;;;;;;;;;;;;;;;-147.53;100.00;59759.91;5138734;27;19916;-79
2022/02/16 06:08:50;;;;;;;;;;;;;;;-147.53;100.00;59759.91;5121218;27;19942;-80
2022/02/16 06:12:12;;;;;;;;;;;;;;;-147.53;100.00;59759.91;5120131;27;19916;-79
2022/02/16 06:15:36;;;;;;;;;;;;;;;-147.53;100.00;59759.91;5138188;27;19915;-78
2022/02/16 06:19:00;;;;;;;;;;;;;;;-147.53;100.00;59759.91;5121742;27;20010;-81
2022/02/16 06:21:25;;;;;;;;;;;;;;;14.02;76.41;99543.44;5120351;27;20474;-80
2022/02/16 06:23:50;;;;;;;;;;;;;;;14.74;74.46;99552.00;5119618;27;19920;-80
2022/02/16 06:26:16;;;;;;;;;;;;;;;14.20;76.32;99545.63;5119874;27;19986;-79
2022/02/16 06:28:41;;;;;;;;;;;;;;;13.78;77.91;99546.31;5120673;27;19911;-78
2022/02/16 06:31:07;;;;;;;;;;;;;;;13.96;77.63;99547.50;5137990;27;19915;-79
2022/02/16 06:33:33;;;;;;;;;;;;;;;14.15;76.74;99546.88;5118282;27;19916;-81
2022/02/16 06:35:59;;;;;;;;;;;;;;;14.41;76.92;99527.47;5118211;27;19956;-80
2022/02/16 06:38:24;;;;;;;;;;;;;;;14.39;75.36;99539.47;5117774;27;20375;-81
2022/02/16 06:40:50;;;;;;;;;;;;;;;14.25;74.97;99546.09;5117654;27;19911;-80
2022/02/16 06:43:15;;;;;;;;;;;;;;;14.54;75.98;99551.81;5136112;27;19915;-80
2022/02/16 06:45:40;;;;;;;;;;;;;;;14.54;75.65;99538.19;5117712;27;20014;-80
2022/02/16 06:48:05;;;;;;;;;;;;;;;14.45;77.20;99548.00;5117311;27;19915;-80
2022/02/16 06:50:31;;;;;;;;;;;;;;;14.79;75.21;99560.63;5117456;27;19916;-81
2022/02/16 06:52:56;;;;;;;;;;;;;;;14.87;74.45;99556.25;5117243;27;20286;-82
2022/02/16 06:55:21;;;;;;;;;;;;;;;14.35;77.62;99558.78;5117275;27;19965;-81
2022/02/16 06:57:47;;;;;;;;;;;;;;;14.29;78.39;99561.16;5136084;27;19915;-82
2022/02/16 07:00:12;;;;;;;;;;;;;;;14.24;77.01;99558.84;5117274;27;19916;-81
2022/02/16 07:02:46;;;;;;;;;;;;;;;14.51;76.10;99561.09;5117322;27;19949;-79
2022/02/16 07:05:11;;;;;;;;;;;;;;;14.86;76.23;99554.50;5117253;27;20262;-79
2022/02/16 07:07:36;;;;;;;;;;;;;;;14.82;75.61;99539.44;5135317;27;19922;-81
2022/02/16 07:10:02;;;;;;;;;;;;;;;14.57;76.72;99556.09;5135498;27;19915;-80
2022/02/16 07:12:27;;;;;;;;;;;;;;;14.32;78.42;99569.94;5116906;27;19915;-79
2022/02/16 07:14:56;;;;;;;;;;;;;;;14.02;79.16;99545.31;5135328;27;19919;-79
2022/02/16 07:17:21;;;;;;;;;;;;;;;14.13;79.25;99562.47;5117085;27;19922;-81
2022/02/16 07:19:47;;;;;;;;;;;;;;;14.00;79.55;99576.19;5135330;27;19919;-81
2022/02/16 07:22:12;;;;;;;;;;;;;;;14.13;79.77;99565.19;5116069;27;19919;-82
2022/02/16 07:24:37;;;;;;;;;;;;;;;14.93;77.38;99571.19;5134926;27;19972;-81
2022/02/16 07:27:03;;;;;;;;;;;;;;;14.59;78.46;99556.84;5135327;27;19915;-81
2022/02/16 07:29:28;;;;;;;;;;;;;;;14.07;79.60;99565.69;5116887;27;19964;-82
2022/02/16 07:31:54;;;;;;;;;;;;;;;14.82;78.54;99561.19;5116763;27;19920;-82
2022/02/16 07:34:19;;;;;;;;;;;;;;;14.91;76.58;99562.28;5116690;27;20014;-81
2022/02/16 07:36:44;;;;;;;;;;;;;;;14.98;76.18;99568.94;5115675;27;19967;-80
2022/02/16 07:39:09;;;;;;;;;;;;;;;15.71;75.49;99571.59;5133075;27;19922;-82
2022/02/16 07:41:35;;;;;;;;;;;;;;;15.02;76.52;99567.69;5133260;27;20377;-82
2022/02/16 07:44:00;;;;;;;;;;;;;;;14.32;78.48;99588.97;5115693;27;20369;-81
2022/02/16 07:46:26;;;;;;;;;;;;;;;15.50;75.20;99590.72;5134846;27;20428;-82
2022/02/16 07:48:51;;;;;;;;;;;;;;;15.85;74.29;99589.50;5116936;27;20323;-87
2022/02/16 07:51:16;;;;;;;;;;;;;;;14.79;78.31;99591.41;5135987;27;19968;-81
2022/02/16 07:53:42;;;;;;;;;;;;;;;14.52;78.41;99611.81;5134638;27;19924;-82
2022/02/16 07:56:07;;;;;;;;;;;;;;;15.17;77.22;99595.44;5116234;27;19923;-81
2022/02/16 07:58:32;;;;;;;;;;;;;;;15.54;75.93;99629.50;5134781;27;19968;-82
2022/02/16 08:00:58;;;;;;;;;;;;;;;15.39;75.74;99620.81;5116359;27;19919;-83
2022/02/16 08:03:23;;;;;;;;;;;;;;;15.64;74.79;99629.53;5116120;27;19922;-80
2022/02/16 08:05:48;;;;;;;;;;;;;;;15.17;76.00;99614.50;5134626;27;19915;-81
2022/02/16 08:08:13;;;;;;;;;;;;;;;15.26;76.08;99620.16;5115964;27;20245;-82
2022/02/16 08:10:39;;;;;;;;;;;;;;;15.22;75.85;99617.69;5118672;27;19951;-80
2022/02/16 08:13:04;;;;;;;;;;;;;;;16.18;73.75;99619.31;5125071;27;19915;-81
2022/02/16 08:15:31;;;;;;;;;;;;;;;15.32;75.88;99615.00;5125320;27;20647;-82
2022/02/16 08:17:57;;;;;;;;;;;;;;;15.86;73.79;99623.94;5123717;27;19961;-85
2022/02/16 08:20:22;;;;;;;;;;;;;;;15.76;73.02;99618.44;5125255;27;20356;-83
2022/02/16 08:22:47;;;;;;;;;;;;;;;14.78;76.29;99635.13;5125185;27;20431;-82
2022/02/16 08:25:13;;;;;;;;;;;;;;;15.49;74.13;99632.63;5121857;27;19942;-82
2022/02/16 08:27:42;;;;;;;;;;;;;;;15.48;76.41;99621.88;5115923;27;19915;-81
2022/02/16 08:30:11;;;;;;;;;;;;;;;15.65;74.38;99610.31;5144086;27;19986;-86
2022/02/16 08:32:37;;;;;;;;;;;;;;;15.60;73.63;99613.47;5122829;27;20408;-83
2022/02/16 08:35:03;;;;;;;;;;;;;;;15.95;73.49;99611.34;5124158;27;19915;-80
2022/02/16 08:37:28;;;;;;;;;;;;;;;15.38;74.46;99597.28;5124302;27;20281;-80
2022/02/16 08:39:53;;;;;;;;;;;;;;;15.57;76.03;99597.38;5120573;27;19911;-84
2022/02/16 08:42:18;;;;;;;;;;;;;;;15.64;75.13;99613.19;5117661;27;19916;-81
2022/02/16 08:44:44;;;;;;;;;;;;;;;15.53;73.38;99605.97;5123401;27;20063;-83
2022/02/16 08:47:09;;;;;;;;;;;;;;;15.10;73.98;99598.81;5126200;27;19923;-82
2022/02/16 08:49:34;;;;;;;;;;;;;;;15.49;74.69;99621.72;5125898;27;19915;-84
2022/02/16 08:52:00;;;;;;;;;;;;;;;16.18;73.26;99633.81;5128966;27;19937;-82
2022/02/16 08:54:25;;;;;;;;;;;;;;;16.07;73.48;99625.75;5123805;27;19938;-81
2022/02/16 08:56:50;;;;;;;;;;;;;;;15.89;73.42;99620.94;5124909;27;19915;-83
2022/02/16 08:59:16;;;;;;;;;;;;;;;15.84;73.37;99639.59;5124173;27;19951;-83
2022/02/16 09:01:42;;;;;;;;;;;;;;;16.24;72.95;99627.78;5123566;27;19919;-87
2022/02/16 09:04:07;;;;;;;;;;;;;;;16.05;73.27;99628.63;5125715;27;19926;-82
2022/02/16 09:06:33;;;;;;;;;;;;;;;15.85;73.34;99644.06;5140003;27;19923;-82
2022/02/16 09:09:01;;;;;;;;;;;;;;;16.36;72.08;99620.34;5124676;27;19927;-84
2022/02/16 09:11:26;;;;;;;;;;;;;;;15.84;73.70;99631.41;5122292;28;19919;-82
2022/02/16 09:13:53;;;;;;;;;;;;;;;16.60;71.41;99625.41;5141179;27;20023;-79
2022/02/16 09:16:18;;;;;;;;;;;;;;;16.41;72.52;99633.56;5141203;27;19915;-81
2022/02/16 09:18:43;;;;;;;;;;;;;;;17.05;70.44;99634.97;5124801;27;19915;-82
2022/02/16 09:21:08;;;;;;;;;;;;;;;17.19;70.40;99633.66;5144075;27;19954;-82
2022/02/16 09:23:35;;;;;;;;;;;;;;;16.76;71.60;99618.56;5144094;27;19919;-83
2022/02/16 09:26:01;;;;;;;;;;;;;;;16.79;70.85;99619.13;5120625;27;19919;-82
2022/02/16 09:28:27;;;;;;;;;;;;;;;16.45;73.36;99610.47;5113457;28;19963;-81
2022/02/16 09:30:52;;;;;;;;;;;;;;;16.07;73.23;99614.84;5116452;27;20395;-83
2022/02/16 09:33:17;;;;;;;;;;;;;;;16.66;71.70;99602.16;5136886;27;19915;-82
2022/02/16 09:35:42;;;;;;;;;;;;;;;16.25;72.33;99606.84;5118734;27;19915;-82
2022/02/16 09:38:08;;;;;;;;;;;;;;;16.77;71.99;99615.69;5143674;27;19926;-82
2022/02/16 09:40:33;;;;;;;;;;;;;;;16.74;71.98;99607.78;5127256;27;20466;-84
2022/02/16 09:43:00;;;;;;;;;;;;;;;16.39;72.55;99617.34;5128416;27;20025;-82
2022/02/16 09:45:27;;;;;;;;;;;;;;;16.28;72.66;99622.94;5145438;27;20018;-82
2022/02/16 09:47:53;;;;;;;;;;;;;;;16.41;72.56;99631.72;5126769;27;20348;-82
2022/02/16 09:50:18;;;;;;;;;;;;;;;16.49;72.38;99617.38;5128953;27;19922;-84
2022/02/16 09:52:43;;;;;;;;;;;;;;;15.75;74.18;99615.84;5126571;27;19926;-83
2022/02/16 09:55:09;;;;;;;;;;;;;;;16.61;73.25;99618.97;5127495;27;19922;-86
2022/02/16 09:57:34;;;;;;;;;;;;;;;16.15;73.11;99612.25;5123617;27;19922;-82
2022/02/16 09:59:59;;;;;;;;;;;;;;;17.05;70.66;99606.78;5137188;27;20296;-82
2022/02/16 10:02:33;;;;;;;;;;;;;;;16.29;73.28;99627.41;5120697;27;20360;-82
2022/02/16 10:04:59;;;;;;;;;;;;;;;17.43;70.02;99619.50;5122937;27;19923;-83
2022/02/16 10:07:35;;;;;;;;;;;;;;;17.07;70.47;99618.44;5129126;27;20019;-83
2022/02/16 10:10:19;;;;;;;;;;;;;;;16.67;72.51;99609.34;5141446;27;19916;-84
2022/02/16 10:12:47;;;;;;;;;;;;;;;17.25;69.54;99604.88;5135298;27;19915;-83
2022/02/16 10:15:13;;;;;;;;;;;;;;;16.87;71.83;99607.50;5150251;27;19919;-81
2022/02/16 10:17:38;;;;;;;;;;;;;;;16.41;72.62;99587.19;5130589;27;19927;-82
2022/02/16 10:20:05;;;;;;;;;;;;;;;15.49;76.09;99566.34;5144718;27;19919;-82
2022/02/16 10:22:41;;;;;;;;;;;;;;;16.39;73.49;99570.94;5144392;27;19923;-83
2022/02/16 10:25:20;;;;;;;;;;;;;;;16.28;72.36;99582.84;5129642;27;19972;-81
2022/02/16 10:28:04;;;;;;;;;;;;;;;16.71;72.06;99585.34;5127837;27;19950;-82
2022/02/16 10:30:29;;;;;;;;;;;;;;;16.51;73.48;99603.59;5128020;27;19930;-82
2022/02/16 10:33:15;;;;;;;;;;;;;;;17.12;70.95;99583.31;5143396;27;20295;-82
2022/02/16 10:35:40;;;;;;;;;;;;;;;16.69;71.54;99585.47;5127020;27;19915;-81
2022/02/16 10:38:05;;;;;;;;;;;;;;;17.08;70.31;99568.25;5142846;27;19972;-83
2022/02/16 10:40:30;;;;;;;;;;;;;;;16.56;71.51;99568.50;5143126;27;19965;-84
2022/02/16 10:42:56;;;;;;;;;;;;;;;16.25;72.40;99574.94;5144890;27;19942;-81
2022/02/16 10:45:25;;;;;;;;;;;;;;;15.41;75.43;99586.09;5143822;27;19919;-81
2022/02/16 10:47:51;;;;;;;;;;;;;;;16.86;70.94;99583.88;5142358;27;20343;-83
2022/02/16 10:50:16;;;;;;;;;;;;;;;15.63;74.74;99603.31;5128729;27;19955;-84
2022/02/16 10:52:48;;;;;;;;;;;;;;;16.94;72.50;99588.66;5144352;27;19930;-80
2022/02/16 10:55:13;;;;;;;;;;;;;;;15.46;74.20;99611.09;5150375;27;19919;-81
2022/02/16 10:57:38;;;;;;;;;;;;;;;16.37;71.70;99615.78;5124342;27;19919;-82
2022/02/16 11:00:04;;;;;;;;;;;;;;;15.31;74.53;99636.94;5127758;27;19916;-83
2022/02/16 11:02:29;;;;;;;;;;;;;;;16.17;71.90;99636.69;5146890;27;19919;-81
2022/02/16 11:04:56;;;;;;;;;;;;;;;15.95;73.26;99638.63;5157322;27;19915;-82
2022/02/16 11:07:23;;;;;;;;;;;;;;;16.29;71.30;99646.50;5156871;27;19998;-83
2022/02/16 11:09:49;;;;;;;;;;;;;;;15.94;72.32;99640.50;5138473;27;19922;-84
2022/02/16 11:12:16;;;;;;;;;;;;;;;16.28;72.27;99626.53;5138677;27;19965;-82
2022/02/16 11:14:41;;;;;;;;;;;;;;;15.75;74.36;99610.38;5157104;27;19942;-83
2022/02/16 11:17:09;;;;;;;;;;;;;;;16.03;73.15;99613.38;5131441;27;20483;-83
2022/02/16 11:19:35;;;;;;;;;;;;;;;16.21;72.71;99610.84;5128814;27;20284;-84
2022/02/16 11:22:13;;;;;;;;;;;;;;;16.35;70.52;99604.13;5131019;27;19926;-87
2022/02/16 11:24:41;;;;;;;;;;;;;;;15.83;73.08;99618.75;5144507;27;19920;-86
2022/02/16 11:27:29;;;;;;;;;;;;;;;15.77;72.83;99620.16;5125918;27;19919;-84
2022/02/16 11:29:55;;;;;;;;;;;;;;;16.73;71.02;99621.56;5123053;27;19915;-84
2022/02/16 11:32:22;;;;;;;;;;;;;;;15.72;71.89;99635.19;5149655;27;19915;-84
2022/02/16 11:35:06;;;;;;;;;;;;;;;15.67;72.16;99624.69;5128047;27;19916;-83
2022/02/16 11:37:35;;;;;;;;;;;;;;;16.43;71.49;99609.75;5147263;27;19919;-85
2022/02/16 11:40:00;;;;;;;;;;;;;;;15.25;74.30;99602.94;5127489;27;19915;-86
2022/02/16 11:42:50;;;;;;;;;;;;;;;15.80;72.35;99612.72;5127994;27;19923;-84
2022/02/16 11:45:16;;;;;;;;;;;;;;;15.42;73.71;99629.56;5111743;27;19933;-85
2022/02/16 11:47:41;;;;;;;;;;;;;;;15.75;73.04;99633.03;5125818;27;19927;-85
2022/02/16 11:50:09;;;;;;;;;;;;;;;15.79;73.29;99632.81;5144068;27;20292;-87
2022/02/16 11:52:43;;;;;;;;;;;;;;;15.55;73.01;99632.09;5128421;27;19923;-86
2022/02/16 11:55:22;;;;;;;;;;;;;;;15.88;72.24;99631.97;5127871;27;19924;-85
2022/02/16 11:57:51;;;;;;;;;;;;;;;15.54;72.48;99627.63;5128312;27;19933;-85
2022/02/16 12:00:20;;;;;;;;;;;;;;;16.70;69.25;99616.38;5136270;27;19926;-85
2022/02/16 12:03:05;;;;;;;;;;;;;;;16.12;70.64;99615.28;5136174;27;19920;-87
2022/02/16 12:05:42;;;;;;;;;;;;;;;15.93;70.54;99625.13;5132555;27;19911;-85
2022/02/16 12:08:14;;;;;;;;;;;;;;;15.73;71.93;99615.97;5145575;27;20006;-85
2022/02/16 12:10:41;;;;;;;;;;;;;;;16.04;70.71;99631.47;5145089;27;19973;-85
2022/02/16 12:13:07;;;;;;;;;;;;;;;15.71;69.94;99637.03;5124546;27;19915;-85
2022/02/16 12:15:32;;;;;;;;;;;;;;;15.88;72.00;99621.06;5149365;27;20002;-83
2022/02/16 12:17:58;;;;;;;;;;;;;;;15.49;71.31;99615.41;5124677;27;19919;-83
2022/02/16 12:20:24;;;;;;;;;;;;;;;16.91;68.02;99619.00;5143009;27;19919;-82
2022/02/16 12:22:49;;;;;;;;;;;;;;;15.74;69.96;99600.47;5119727;27;19926;-84
2022/02/16 12:25:16;;;;;;;;;;;;;;;16.49;69.27;99603.72;5122669;27;20293;-84
2022/02/16 12:27:42;;;;;;;;;;;;;;;15.65;71.38;99604.00;5123545;27;19922;-86
2022/02/16 12:30:07;;;;;;;;;;;;;;;15.54;70.79;99608.56;5118075;27;19915;-83
2022/02/16 12:32:32;;;;;;;;;;;;;;;15.64;71.29;99615.91;5135302;27;19923;-85
2022/02/16 12:35:00;;;;;;;;;;;;;;;16.08;70.05;99636.53;5134203;27;19967;-83
2022/02/16 12:37:25;;;;;;;;;;;;;;;15.59;70.71;99651.75;5133800;27;19915;-84
2022/02/16 12:39:59;;;;;;;;;;;;;;;15.87;69.24;99654.81;5115689;27;19915;-83
2022/02/16 12:42:41;;;;;;;;;;;;;;;15.92;70.23;99637.03;5133933;27;19958;-84
2022/02/16 12:45:07;;;;;;;;;;;;;;;15.98;68.97;99648.41;5132703;27;19926;-83
2022/02/16 12:47:32;;;;;;;;;;;;;;;16.33;68.82;99636.16;5114810;27;20002;-85
2022/02/16 12:50:05;;;;;;;;;;;;;;;16.01;68.91;99631.75;5114700;27;19930;-83
2022/02/16 12:52:30;;;;;;;;;;;;;;;16.77;66.83;99612.06;5133207;27;20476;-85